Terminal Aerodrome Forecast
Issued by NWS Omaha/Valley, NE

Home | Current Version | Previous Version | Text Only | Print | Product List | Glossary Off
Versions: 1 2 3 4 5 6 7 8 9 10 11 12 13 14 15 16 17 18 19 20 21 22 23 24 25 26 27 28 29 30 31 32 33 34 35 36 37 38 39 40

095
FTUS43 KOAX 191318 AAA
TAFOFK
TAF AMD
KOFK 191318Z 1913/2012 36013KT P6SM VCSH OVC008
      TEMPO 1913/1915 VRB15G25KT 4SM -TSRA BR OVC006CB
     FM191500 01015KT P6SM -SHRA OVC015
     FM191800 01013KT P6SM VCSH OVC025
     FM192100 01015G20KT P6SM OVC015
     FM200000 01011KT P6SM OVC008=

USA.gov is the U.S. government's official web portal to all federal, state and local government web resources and services.